CSN3589 ZGSZ-ZSSS
Flight info
| Callsign | CSN3589 |
|---|---|
| Flight time | N/A |
| Altitude | 33100 |
| Route | IDUMA W41 ISLOM G471 XEBUL DCT ODOPI DCT AKAVO DCT UPNUG W76 AREPI B221 SHZ G204 AND |
| Aircraft | A321/M-SDE3FGHIRWY/LB1 |
Departure
| Time | 2026-04-30 15:03 |
|---|---|
| Airport | Shenzhen Bao'an International Airport (ZGSZ) |
Arrival
| Time | N/A |
|---|---|
| Airport | Shanghai Hongqiao International Airport (ZSSS) |
| Time | Latitude | Longitude | Altitude | Speed | Heading |
|---|---|---|---|---|---|
| 2026-04-30 14:30 | 22.63446 | 113.80352 | 15 ft | 0 kts | 63° |
| 2026-04-30 14:45 | 22.63441 | 113.80340 | 16 ft | 4 kts | 63° |
| 2026-04-30 14:45 | 22.63430 | 113.80318 | 17 ft | 4 kts | 68° |
| 2026-04-30 14:46 | 22.63429 | 113.80294 | 18 ft | 4 kts | 129° |
| 2026-04-30 14:46 | 22.63449 | 113.80277 | 18 ft | 4 kts | 153° |
| 2026-04-30 14:46 | 22.63459 | 113.80271 | 15 ft | 0 kts | 153° |
| 2026-04-30 14:55 | 22.63458 | 113.80272 | 15 ft | 1 kts | 153° |
| 2026-04-30 14:55 | 22.63446 | 113.80278 | 15 ft | 3 kts | 153° |
| 2026-04-30 14:55 | 22.63369 | 113.80307 | 15 ft | 8 kts | 192° |
| 2026-04-30 14:56 | 22.63291 | 113.80177 | 15 ft | 13 kts | 243° |
| 2026-04-30 14:56 | 22.63180 | 113.80056 | 15 ft | 12 kts | 161° |
| 2026-04-30 14:57 | 22.63101 | 113.80099 | 15 ft | 13 kts | 153° |
| 2026-04-30 14:57 | 22.62934 | 113.80191 | 15 ft | 14 kts | 153° |
| 2026-04-30 14:58 | 22.62755 | 113.80289 | 15 ft | 15 kts | 153° |
| 2026-04-30 14:58 | 22.62661 | 113.80340 | 15 ft | 15 kts | 153° |
| 2026-04-30 14:58 | 22.62506 | 113.80371 | 15 ft | 11 kts | 235° |
| 2026-04-30 14:59 | 22.62460 | 113.80274 | 17 ft | 0 kts | 243° |
| 2026-04-30 15:00 | 22.62460 | 113.80273 | 15 ft | 1 kts | 243° |
| 2026-04-30 15:01 | 22.62447 | 113.80246 | 17 ft | 4 kts | 243° |
| 2026-04-30 15:01 | 22.62436 | 113.80223 | 15 ft | 6 kts | 243° |
| 2026-04-30 15:01 | 22.62496 | 113.80109 | 15 ft | 12 kts | 333° |
| 2026-04-30 15:02 | 22.62670 | 113.80014 | 15 ft | 59 kts | 333° |
| 2026-04-30 15:02 | 22.63255 | 113.79693 | 16 ft | 129 kts | 333° |
| 2026-04-30 15:03 | 22.66533 | 113.77908 | 1594 ft | 190 kts | 336° |
| 2026-04-30 15:03 | 22.68802 | 113.75777 | 1917 ft | 240 kts | 315° |
| 2026-04-30 15:04 | 22.71693 | 113.74005 | 2755 ft | 256 kts | 7° |
| 2026-04-30 15:04 | 22.74573 | 113.78303 | 4509 ft | 266 kts | 79° |
| 2026-04-30 15:05 | 22.77910 | 113.83181 | 6285 ft | 281 kts | 40° |
| 2026-04-30 15:06 | 22.80896 | 113.86032 | 7354 ft | 291 kts | 40° |
| 2026-04-30 15:06 | 22.83894 | 113.89038 | 8522 ft | 297 kts | 42° |
| 2026-04-30 15:07 | 22.86901 | 113.92189 | 9598 ft | 305 kts | 43° |
| 2026-04-30 15:07 | 22.90328 | 113.94992 | 10275 ft | 322 kts | 21° |
| 2026-04-30 15:08 | 22.94875 | 113.96083 | 10516 ft | 352 kts | 6° |
| 2026-04-30 15:08 | 23.02563 | 113.97394 | 11244 ft | 384 kts | 7° |
| 2026-04-30 15:09 | 23.07871 | 113.98327 | 12216 ft | 389 kts | 7° |
| 2026-04-30 15:09 | 23.13258 | 113.99272 | 13205 ft | 394 kts | 7° |
| 2026-04-30 15:10 | 23.18708 | 114.00228 | 14154 ft | 399 kts | 7° |
| 2026-04-30 15:11 | 23.29662 | 114.02967 | 15885 ft | 415 kts | 25° |
| 2026-04-30 15:11 | 23.34407 | 114.06649 | 16719 ft | 423 kts | 37° |
| 2026-04-30 15:12 | 23.41422 | 114.12627 | 17989 ft | 431 kts | 36° |
| 2026-04-30 15:13 | 23.46153 | 114.16654 | 18732 ft | 437 kts | 36° |
| 2026-04-30 15:14 | 23.55827 | 114.24942 | 20037 ft | 448 kts | 36° |
| 2026-04-30 15:14 | 23.62997 | 114.31086 | 20925 ft | 455 kts | 36° |
| 2026-04-30 15:16 | 23.75761 | 114.41645 | 22352 ft | 467 kts | 34° |
| 2026-04-30 15:17 | 23.86261 | 114.50230 | 23409 ft | 476 kts | 34° |
| 2026-04-30 15:18 | 23.99570 | 114.61207 | 24722 ft | 482 kts | 35° |
| 2026-04-30 15:19 | 24.07637 | 114.67863 | 25450 ft | 486 kts | 34° |